sensor_id;sensor_type;location;lat;lon;timestamp;temperature;humidity
7167;DHT22;3625;51.762;14.320;2022-09-09T00:00:54;13.30;99.90
7167;DHT22;3625;51.762;14.320;2022-09-09T00:03:34;13.30;99.90
7167;DHT22;3625;51.762;14.320;2022-09-09T00:06:14;13.30;99.90
7167;DHT22;3625;51.762;14.320;2022-09-09T00:09:00;13.30;99.90
7167;DHT22;3625;51.762;14.320;2022-09-09T00:11:39;13.30;99.90
7167;DHT22;3625;51.762;14.320;2022-09-09T00:14:18;13.10;99.90
7167;DHT22;3625;51.762;14.320;2022-09-09T00:16:58;13.10;99.90
7167;DHT22;3625;51.762;14.320;2022-09-09T00:19:35;13.20;99.90
7167;DHT22;3625;51.762;14.320;2022-09-09T00:22:16;13.10;99.90
7167;DHT22;3625;51.762;14.320;2022-09-09T00:24:51;13.10;99.90
7167;DHT22;3625;51.762;14.320;2022-09-09T00:27:26;13.10;99.90
7167;DHT22;3625;51.762;14.320;2022-09-09T00:30:13;13.10;99.90
7167;DHT22;3625;51.762;14.320;2022-09-09T00:32:47;13.10;99.90
7167;DHT22;3625;51.762;14.320;2022-09-09T00:35:21;13.10;99.90
7167;DHT22;3625;51.762;14.320;2022-09-09T00:37:54;13.10;99.90
7167;DHT22;3625;51.762;14.320;2022-09-09T00:40:32;13.10;99.90
7167;DHT22;3625;51.762;14.320;2022-09-09T00:43:16;13.10;99.90
7167;DHT22;3625;51.762;14.320;2022-09-09T00:46:05;13.10;99.90
7167;DHT22;3625;51.762;14.320;2022-09-09T00:49:03;13.00;99.90
7167;DHT22;3625;51.762;14.320;2022-09-09T00:51:46;13.00;99.90
7167;DHT22;3625;51.762;14.320;2022-09-09T00:54:37;13.00;99.90
7167;DHT22;3625;51.762;14.320;2022-09-09T00:57:23;13.00;99.90
7167;DHT22;3625;51.762;14.320;2022-09-09T01:00:15;13.00;99.90
7167;DHT22;3625;51.762;14.320;2022-09-09T01:02:53;13.00;99.90
7167;DHT22;3625;51.762;14.320;2022-09-09T01:05:40;13.00;99.90
7167;DHT22;3625;51.762;14.320;2022-09-09T01:08:28;13.00;99.90
7167;DHT22;3625;51.762;14.320;2022-09-09T01:11:15;13.00;99.90
7167;DHT22;3625;51.762;14.320;2022-09-09T01:13:55;13.00;99.90
7167;DHT22;3625;51.762;14.320;2022-09-09T01:16:33;13.00;99.90
7167;DHT22;3625;51.762;14.320;2022-09-09T01:19:03;12.90;99.90
7167;DHT22;3625;51.762;14.320;2022-09-09T01:21:46;12.90;99.90
7167;DHT22;3625;51.762;14.320;2022-09-09T01:24:29;12.80;99.90
7167;DHT22;3625;51.762;14.320;2022-09-09T01:27:26;12.80;99.90
7167;DHT22;3625;51.762;14.320;2022-09-09T01:29:56;12.80;99.90
7167;DHT22;3625;51.762;14.320;2022-09-09T01:32:41;12.80;99.90
7167;DHT22;3625;51.762;14.320;2022-09-09T01:35:21;12.80;99.90
7167;DHT22;3625;51.762;14.320;2022-09-09T01:38:01;12.80;99.90
7167;DHT22;3625;51.762;14.320;2022-09-09T01:40:31;12.70;99.90
7167;DHT22;3625;51.762;14.320;2022-09-09T01:43:02;12.70;99.90
7167;DHT22;3625;51.762;14.320;2022-09-09T01:48:02;12.70;99.90
7167;DHT22;3625;51.762;14.320;2022-09-09T01:50:43;12.70;99.90
7167;DHT22;3625;51.762;14.320;2022-09-09T01:53:14;12.60;99.90
7167;DHT22;3625;51.762;14.320;2022-09-09T01:55:50;12.60;99.90
7167;DHT22;3625;51.762;14.320;2022-09-09T01:58:34;12.60;99.90
7167;DHT22;3625;51.762;14.320;2022-09-09T02:01:38;12.60;99.90
7167;DHT22;3625;51.762;14.320;2022-09-09T02:04:27;12.60;99.90
7167;DHT22;3625;51.762;14.320;2022-09-09T02:07:19;12.50;99.90
7167;DHT22;3625;51.762;14.320;2022-09-09T02:10:10;12.50;99.90
7167;DHT22;3625;51.762;14.320;2022-09-09T02:12:55;12.50;99.90
7167;DHT22;3625;51.762;14.320;2022-09-09T02:15:35;12.50;99.90
7167;DHT22;3625;51.762;14.320;2022-09-09T02:18:13;12.40;99.90
7167;DHT22;3625;51.762;14.320;2022-09-09T02:20:48;12.40;99.90
7167;DHT22;3625;51.762;14.320;2022-09-09T02:23:19;12.40;99.90
7167;DHT22;3625;51.762;14.320;2022-09-09T02:25:53;12.30;99.90
7167;DHT22;3625;51.762;14.320;2022-09-09T02:28:28;12.40;99.90
7167;DHT22;3625;51.762;14.320;2022-09-09T02:31:02;12.40;99.90
7167;DHT22;3625;51.762;14.320;2022-09-09T02:33:41;12.40;99.90
7167;DHT22;3625;51.762;14.320;2022-09-09T02:36:15;12.30;99.90
7167;DHT22;3625;51.762;14.320;2022-09-09T02:38:47;12.30;99.90
7167;DHT22;3625;51.762;14.320;2022-09-09T02:41:27;12.30;99.90
7167;DHT22;3625;51.762;14.320;2022-09-09T02:44:01;12.20;99.90
7167;DHT22;3625;51.762;14.320;2022-09-09T02:49:51;12.20;99.90
7167;DHT22;3625;51.762;14.320;2022-09-09T02:52:36;12.10;99.90
7167;DHT22;3625;51.762;14.320;2022-09-09T02:55:18;12.10;99.90
7167;DHT22;3625;51.762;14.320;2022-09-09T02:57:56;12.10;99.90
7167;DHT22;3625;51.762;14.320;2022-09-09T03:00:28;12.00;99.90
7167;DHT22;3625;51.762;14.320;2022-09-09T03:03:02;12.10;99.90
7167;DHT22;3625;51.762;14.320;2022-09-09T03:05:32;12.00;99.90
7167;DHT22;3625;51.762;14.320;2022-09-09T03:08:02;12.10;99.90
7167;DHT22;3625;51.762;14.320;2022-09-09T03:10:32;12.10;99.90
7167;DHT22;3625;51.762;14.320;2022-09-09T03:13:02;12.10;99.90
7167;DHT22;3625;51.762;14.320;2022-09-09T03:18:09;12.00;99.90
7167;DHT22;3625;51.762;14.320;2022-09-09T03:20:38;12.00;99.90
7167;DHT22;3625;51.762;14.320;2022-09-09T03:23:10;12.00;99.90
7167;DHT22;3625;51.762;14.320;2022-09-09T03:25:47;12.00;99.90
7167;DHT22;3625;51.762;14.320;2022-09-09T03:28:20;12.00;99.90
7167;DHT22;3625;51.762;14.320;2022-09-09T03:30:49;12.00;99.90
7167;DHT22;3625;51.762;14.320;2022-09-09T03:33:20;12.00;99.90
7167;DHT22;3625;51.762;14.320;2022-09-09T03:40:50;11.90;99.90
7167;DHT22;3625;51.762;14.320;2022-09-09T03:43:23;11.90;99.90
7167;DHT22;3625;51.762;14.320;2022-09-09T03:45:53;11.80;99.90
7167;DHT22;3625;51.762;14.320;2022-09-09T03:48:27;11.80;99.90
7167;DHT22;3625;51.762;14.320;2022-09-09T03:53:30;11.90;99.90
7167;DHT22;3625;51.762;14.320;2022-09-09T03:56:02;11.90;99.90
7167;DHT22;3625;51.762;14.320;2022-09-09T04:01:08;11.90;99.90
7167;DHT22;3625;51.762;14.320;2022-09-09T04:03:44;11.20;99.90
7167;DHT22;3625;51.762;14.320;2022-09-09T04:06:14;11.80;99.90
7167;DHT22;3625;51.762;14.320;2022-09-09T04:08:46;11.80;99.90
7167;DHT22;3625;51.762;14.320;2022-09-09T04:11:16;11.80;99.90
7167;DHT22;3625;51.762;14.320;2022-09-09T04:16:31;11.80;99.90
7167;DHT22;3625;51.762;14.320;2022-09-09T04:19:16;11.80;99.90
7167;DHT22;3625;51.762;14.320;2022-09-09T04:21:45;11.80;99.90
7167;DHT22;3625;51.762;14.320;2022-09-09T04:26:58;11.80;99.90
7167;DHT22;3625;51.762;14.320;2022-09-09T04:29:27;11.80;99.90
7167;DHT22;3625;51.762;14.320;2022-09-09T04:31:57;11.80;99.90
7167;DHT22;3625;51.762;14.320;2022-09-09T04:34:27;11.80;99.90
7167;DHT22;3625;51.762;14.320;2022-09-09T04:36:59;11.80;99.90
7167;DHT22;3625;51.762;14.320;2022-09-09T04:39:28;11.80;99.90
7167;DHT22;3625;51.762;14.320;2022-09-09T04:41:59;11.80;99.90
7167;DHT22;3625;51.762;14.320;2022-09-09T04:44:29;11.80;99.90
7167;DHT22;3625;51.762;14.320;2022-09-09T04:46:58;11.80;99.90
7167;DHT22;3625;51.762;14.320;2022-09-09T04:49:29;11.90;99.90
7167;DHT22;3625;51.762;14.320;2022-09-09T04:51:58;11.90;99.90
7167;DHT22;3625;51.762;14.320;2022-09-09T04:54:31;11.90;99.90
7167;DHT22;3625;51.762;14.320;2022-09-09T04:59:29;11.90;99.90
7167;DHT22;3625;51.762;14.320;2022-09-09T05:04:41;11.90;99.90
7167;DHT22;3625;51.762;14.320;2022-09-09T05:12:16;12.00;99.90
7167;DHT22;3625;51.762;14.320;2022-09-09T05:14:50;12.00;99.90
7167;DHT22;3625;51.762;14.320;2022-09-09T05:19:49;12.20;99.90
7167;DHT22;3625;51.762;14.320;2022-09-09T05:22:19;12.10;99.90
7167;DHT22;3625;51.762;14.320;2022-09-09T05:27:22;12.20;99.90
7167;DHT22;3625;51.762;14.320;2022-09-09T05:29:51;12.30;99.90
7167;DHT22;3625;51.762;14.320;2022-09-09T05:32:20;12.30;99.90
7167;DHT22;3625;51.762;14.320;2022-09-09T05:34:50;12.40;99.90
7167;DHT22;3625;51.762;14.320;2022-09-09T05:37:19;11.00;99.90
7167;DHT22;3625;51.762;14.320;2022-09-09T05:39:55;12.40;99.90
7167;DHT22;3625;51.762;14.320;2022-09-09T05:42:29;11.10;99.90
7167;DHT22;3625;51.762;14.320;2022-09-09T05:45:04;12.50;99.90
7167;DHT22;3625;51.762;14.320;2022-09-09T05:47:35;12.50;99.90
7167;DHT22;3625;51.762;14.320;2022-09-09T05:50:09;12.50;99.90
7167;DHT22;3625;51.762;14.320;2022-09-09T05:52:55;12.60;99.90
7167;DHT22;3625;51.762;14.320;2022-09-09T05:58:03;12.80;99.90
7167;DHT22;3625;51.762;14.320;2022-09-09T06:05:57;13.00;99.90
7167;DHT22;3625;51.762;14.320;2022-09-09T06:08:27;13.10;99.90
7167;DHT22;3625;51.762;14.320;2022-09-09T06:11:07;13.10;99.90
7167;DHT22;3625;51.762;14.320;2022-09-09T06:13:38;13.20;99.90
7167;DHT22;3625;51.762;14.320;2022-09-09T06:16:10;13.40;99.90
7167;DHT22;3625;51.762;14.320;2022-09-09T06:18:41;13.40;99.90
7167;DHT22;3625;51.762;14.320;2022-09-09T06:21:16;13.50;99.90
7167;DHT22;3625;51.762;14.320;2022-09-09T06:23:47;13.60;99.90
7167;DHT22;3625;51.762;14.320;2022-09-09T06:26:18;13.70;99.90
7167;DHT22;3625;51.762;14.320;2022-09-09T06:28:50;13.80;99.90
7167;DHT22;3625;51.762;14.320;2022-09-09T06:31:25;13.90;99.90
7167;DHT22;3625;51.762;14.320;2022-09-09T06:34:02;14.00;99.90
7167;DHT22;3625;51.762;14.320;2022-09-09T06:36:37;14.20;99.90
7167;DHT22;3625;51.762;14.320;2022-09-09T06:39:08;14.30;99.90
7167;DHT22;3625;51.762;14.320;2022-09-09T06:41:42;14.40;99.90
7167;DHT22;3625;51.762;14.320;2022-09-09T06:44:33;14.50;99.90
7167;DHT22;3625;51.762;14.320;2022-09-09T06:47:06;14.60;99.90
7167;DHT22;3625;51.762;14.320;2022-09-09T06:49:35;14.70;99.90
7167;DHT22;3625;51.762;14.320;2022-09-09T06:52:09;14.80;99.90
7167;DHT22;3625;51.762;14.320;2022-09-09T06:54:38;14.90;99.90
7167;DHT22;3625;51.762;14.320;2022-09-09T06:57:07;15.00;99.90
7167;DHT22;3625;51.762;14.320;2022-09-09T07:00:01;15.10;99.90
7167;DHT22;3625;51.762;14.320;2022-09-09T07:02:31;15.30;99.90
7167;DHT22;3625;51.762;14.320;2022-09-09T07:05:14;15.40;99.90
7167;DHT22;3625;51.762;14.320;2022-09-09T07:07:48;14.50;99.90
7167;DHT22;3625;51.762;14.320;2022-09-09T07:10:19;15.50;99.90
7167;DHT22;3625;51.762;14.320;2022-09-09T07:12:56;15.70;99.90
7167;DHT22;3625;51.762;14.320;2022-09-09T07:15:29;15.80;99.90
7167;DHT22;3625;51.762;14.320;2022-09-09T07:20:37;15.20;99.90
7167;DHT22;3625;51.762;14.320;2022-09-09T07:23:13;16.30;99.90
7167;DHT22;3625;51.762;14.320;2022-09-09T07:25:46;16.90;99.90
7167;DHT22;3625;51.762;14.320;2022-09-09T07:28:18;17.00;99.90
7167;DHT22;3625;51.762;14.320;2022-09-09T07:30:55;17.70;99.90
7167;DHT22;3625;51.762;14.320;2022-09-09T07:33:33;17.70;99.90
7167;DHT22;3625;51.762;14.320;2022-09-09T07:36:13;18.60;99.90
7167;DHT22;3625;51.762;14.320;2022-09-09T07:38:53;18.60;99.90
7167;DHT22;3625;51.762;14.320;2022-09-09T07:41:31;19.50;99.90
7167;DHT22;3625;51.762;14.320;2022-09-09T07:44:08;19.80;99.90
7167;DHT22;3625;51.762;14.320;2022-09-09T07:49:23;18.90;99.90
7167;DHT22;3625;51.762;14.320;2022-09-09T07:52:03;20.80;99.90
7167;DHT22;3625;51.762;14.320;2022-09-09T07:54:36;20.20;99.90
7167;DHT22;3625;51.762;14.320;2022-09-09T07:57:12;21.40;99.90
7167;DHT22;3625;51.762;14.320;2022-09-09T07:59:42;21.70;99.90
7167;DHT22;3625;51.762;14.320;2022-09-09T08:02:16;21.90;99.90
7167;DHT22;3625;51.762;14.320;2022-09-09T08:04:51;21.90;99.90
7167;DHT22;3625;51.762;14.320;2022-09-09T08:07:24;22.10;99.90
7167;DHT22;3625;51.762;14.320;2022-09-09T08:10:01;20.80;99.90
7167;DHT22;3625;51.762;14.320;2022-09-09T08:12:36;21.50;99.90
7167;DHT22;3625;51.762;14.320;2022-09-09T08:15:11;22.20;99.90
7167;DHT22;3625;51.762;14.320;2022-09-09T08:17:42;22.30;99.90
7167;DHT22;3625;51.762;14.320;2022-09-09T08:20:15;22.30;99.90
7167;DHT22;3625;51.762;14.320;2022-09-09T08:22:44;22.20;99.90
7167;DHT22;3625;51.762;14.320;2022-09-09T08:25:15;22.10;99.90
7167;DHT22;3625;51.762;14.320;2022-09-09T08:27:44;22.00;99.90
7167;DHT22;3625;51.762;14.320;2022-09-09T08:30:22;21.90;99.90
7167;DHT22;3625;51.762;14.320;2022-09-09T08:32:51;21.40;99.90
7167;DHT22;3625;51.762;14.320;2022-09-09T08:37:54;21.10;99.90
7167;DHT22;3625;51.762;14.320;2022-09-09T08:40:30;20.60;99.90
7167;DHT22;3625;51.762;14.320;2022-09-09T08:43:09;20.40;99.90
7167;DHT22;3625;51.762;14.320;2022-09-09T08:45:47;20.30;99.90
7167;DHT22;3625;51.762;14.320;2022-09-09T08:48:41;21.00;99.90
7167;DHT22;3625;51.762;14.320;2022-09-09T08:51:22;20.20;99.90
7167;DHT22;3625;51.762;14.320;2022-09-09T08:53:57;20.20;99.90
7167;DHT22;3625;51.762;14.320;2022-09-09T08:56:36;20.20;99.90
7167;DHT22;3625;51.762;14.320;2022-09-09T08:59:22;20.00;99.90
7167;DHT22;3625;51.762;14.320;2022-09-09T09:02:13;17.80;99.90
7167;DHT22;3625;51.762;14.320;2022-09-09T09:05:06;20.10;99.90
7167;DHT22;3625;51.762;14.320;2022-09-09T09:08:01;20.10;99.90
7167;DHT22;3625;51.762;14.320;2022-09-09T09:10:45;20.10;99.90
7167;DHT22;3625;51.762;14.320;2022-09-09T09:13:26;21.40;99.90
7167;DHT22;3625;51.762;14.320;2022-09-09T09:16:18;19.30;99.90
7167;DHT22;3625;51.762;14.320;2022-09-09T09:18:55;20.20;99.90
7167;DHT22;3625;51.762;14.320;2022-09-09T09:21:36;20.20;99.90
7167;DHT22;3625;51.762;14.320;2022-09-09T09:24:19;20.30;99.90
7167;DHT22;3625;51.762;14.320;2022-09-09T09:29:25;20.30;99.90
7167;DHT22;3625;51.762;14.320;2022-09-09T09:31:56;20.30;99.90
7167;DHT22;3625;51.762;14.320;2022-09-09T09:37:01;20.80;99.90
7167;DHT22;3625;51.762;14.320;2022-09-09T09:39:53;20.50;99.90
7167;DHT22;3625;51.762;14.320;2022-09-09T09:42:34;20.50;99.90
7167;DHT22;3625;51.762;14.320;2022-09-09T09:45:16;20.60;99.90
7167;DHT22;3625;51.762;14.320;2022-09-09T09:48:04;20.70;99.90
7167;DHT22;3625;51.762;14.320;2022-09-09T09:50:55;20.90;99.90
7167;DHT22;3625;51.762;14.320;2022-09-09T09:53:39;21.10;99.90
7167;DHT22;3625;51.762;14.320;2022-09-09T09:56:14;21.10;99.90
7167;DHT22;3625;51.762;14.320;2022-09-09T09:58:50;21.20;99.90
7167;DHT22;3625;51.762;14.320;2022-09-09T10:01:32;21.40;99.90
7167;DHT22;3625;51.762;14.320;2022-09-09T10:04:15;20.00;99.90
7167;DHT22;3625;51.762;14.320;2022-09-09T10:06:56;21.50;99.90
7167;DHT22;3625;51.762;14.320;2022-09-09T10:09:37;20.20;99.90
7167;DHT22;3625;51.762;14.320;2022-09-09T10:12:16;21.50;99.90
7167;DHT22;3625;51.762;14.320;2022-09-09T10:15:03;21.50;99.90
7167;DHT22;3625;51.762;14.320;2022-09-09T10:18:04;22.40;99.90
7167;DHT22;3625;51.762;14.320;2022-09-09T10:21:22;24.00;99.90
7167;DHT22;3625;51.762;14.320;2022-09-09T10:27:41;23.70;99.90
7167;DHT22;3625;51.762;14.320;2022-09-09T10:30:40;23.80;99.90
7167;DHT22;3625;51.762;14.320;2022-09-09T10:33:45;25.00;99.90
7167;DHT22;3625;51.762;14.320;2022-09-09T10:36:23;25.00;99.90
7167;DHT22;3625;51.762;14.320;2022-09-09T10:39:04;25.20;99.90
7167;DHT22;3625;51.762;14.320;2022-09-09T10:41:55;24.80;99.90
7167;DHT22;3625;51.762;14.320;2022-09-09T10:44:52;24.80;99.90
7167;DHT22;3625;51.762;14.320;2022-09-09T10:47:56;24.40;99.90
7167;DHT22;3625;51.762;14.320;2022-09-09T10:51:10;24.30;99.90
7167;DHT22;3625;51.762;14.320;2022-09-09T10:54:36;24.20;99.90
7167;DHT22;3625;51.762;14.320;2022-09-09T10:58:17;24.20;99.90
7167;DHT22;3625;51.762;14.320;2022-09-09T11:00:50;24.30;99.90
7167;DHT22;3625;51.762;14.320;2022-09-09T11:03:47;24.30;99.90
7167;DHT22;3625;51.762;14.320;2022-09-09T11:06:34;24.30;99.90
7167;DHT22;3625;51.762;14.320;2022-09-09T11:09:16;24.50;99.90
7167;DHT22;3625;51.762;14.320;2022-09-09T11:11:53;24.50;99.90
7167;DHT22;3625;51.762;14.320;2022-09-09T11:14:37;25.00;99.90
7167;DHT22;3625;51.762;14.320;2022-09-09T11:17:23;25.00;99.90
7167;DHT22;3625;51.762;14.320;2022-09-09T11:20:00;24.80;99.90
7167;DHT22;3625;51.762;14.320;2022-09-09T11:22:48;25.40;99.90
7167;DHT22;3625;51.762;14.320;2022-09-09T11:25:51;25.60;99.90
7167;DHT22;3625;51.762;14.320;2022-09-09T11:28:51;25.60;99.90
7167;DHT22;3625;51.762;14.320;2022-09-09T11:31:44;25.90;99.90
7167;DHT22;3625;51.762;14.320;2022-09-09T11:34:42;25.90;99.90
7167;DHT22;3625;51.762;14.320;2022-09-09T11:46:51;23.50;99.90
7167;DHT22;3625;51.762;14.320;2022-09-09T11:49:41;23.40;99.90
7167;DHT22;3625;51.762;14.320;2022-09-09T11:52:38;22.90;99.90
7167;DHT22;3625;51.762;14.320;2022-09-09T11:55:25;22.80;99.90
7167;DHT22;3625;51.762;14.320;2022-09-09T11:58:15;23.00;99.90
7167;DHT22;3625;51.762;14.320;2022-09-09T12:00:49;23.30;99.90
7167;DHT22;3625;51.762;14.320;2022-09-09T12:03:48;23.50;99.90
7167;DHT22;3625;51.762;14.320;2022-09-09T12:06:29;24.20;99.90
7167;DHT22;3625;51.762;14.320;2022-09-09T12:09:09;25.00;99.90
7167;DHT22;3625;51.762;14.320;2022-09-09T12:12:04;25.50;99.90
7167;DHT22;3625;51.762;14.320;2022-09-09T12:14:42;24.70;99.90
7167;DHT22;3625;51.762;14.320;2022-09-09T12:17:28;25.90;99.90
7167;DHT22;3625;51.762;14.320;2022-09-09T12:20:11;25.70;99.90
7167;DHT22;3625;51.762;14.320;2022-09-09T12:23:17;25.20;99.90
7167;DHT22;3625;51.762;14.320;2022-09-09T12:29:09;23.90;99.90
7167;DHT22;3625;51.762;14.320;2022-09-09T12:31:58;23.50;99.90
7167;DHT22;3625;51.762;14.320;2022-09-09T12:34:38;22.90;99.90
7167;DHT22;3625;51.762;14.320;2022-09-09T12:37:25;23.00;99.90
7167;DHT22;3625;51.762;14.320;2022-09-09T12:40:04;22.80;99.90
7167;DHT22;3625;51.762;14.320;2022-09-09T12:42:45;22.30;99.90
7167;DHT22;3625;51.762;14.320;2022-09-09T12:45:18;22.40;99.90
7167;DHT22;3625;51.762;14.320;2022-09-09T12:47:53;22.00;99.90
7167;DHT22;3625;51.762;14.320;2022-09-09T12:50:30;21.90;99.90
7167;DHT22;3625;51.762;14.320;2022-09-09T12:53:15;21.90;99.90
7167;DHT22;3625;51.762;14.320;2022-09-09T12:55:58;21.80;99.90
7167;DHT22;3625;51.762;14.320;2022-09-09T12:58:33;21.70;99.90
7167;DHT22;3625;51.762;14.320;2022-09-09T13:01:05;21.70;99.90
7167;DHT22;3625;51.762;14.320;2022-09-09T13:03:43;21.60;99.90
7167;DHT22;3625;51.762;14.320;2022-09-09T13:06:21;21.60;99.90
7167;DHT22;3625;51.762;14.320;2022-09-09T13:09:03;20.90;99.90
7167;DHT22;3625;51.762;14.320;2022-09-09T13:11:38;21.30;99.90
7167;DHT22;3625;51.762;14.320;2022-09-09T13:14:17;21.60;99.90
7167;DHT22;3625;51.762;14.320;2022-09-09T13:16:59;21.80;99.90
7167;DHT22;3625;51.762;14.320;2022-09-09T13:19:35;22.00;99.90
7167;DHT22;3625;51.762;14.320;2022-09-09T13:22:13;22.20;99.90
7167;DHT22;3625;51.762;14.320;2022-09-09T13:25:05;22.30;99.90
7167;DHT22;3625;51.762;14.320;2022-09-09T13:27:53;22.90;99.90
7167;DHT22;3625;51.762;14.320;2022-09-09T13:30:31;22.80;99.90
7167;DHT22;3625;51.762;14.320;2022-09-09T13:36:07;23.00;99.90
7167;DHT22;3625;51.762;14.320;2022-09-09T13:38:39;23.10;99.90
7167;DHT22;3625;51.762;14.320;2022-09-09T13:41:35;23.20;99.90
7167;DHT22;3625;51.762;14.320;2022-09-09T13:44:19;23.20;99.90
7167;DHT22;3625;51.762;14.320;2022-09-09T13:47:06;22.90;99.90
7167;DHT22;3625;51.762;14.320;2022-09-09T13:49:50;22.90;99.90
7167;DHT22;3625;51.762;14.320;2022-09-09T13:52:19;22.80;99.90
7167;DHT22;3625;51.762;14.320;2022-09-09T13:54:53;22.80;99.90
7167;DHT22;3625;51.762;14.320;2022-09-09T13:57:26;22.90;99.90
7167;DHT22;3625;51.762;14.320;2022-09-09T13:59:58;22.90;99.90
7167;DHT22;3625;51.762;14.320;2022-09-09T14:02:33;22.90;99.90
7167;DHT22;3625;51.762;14.320;2022-09-09T14:05:01;22.90;99.90
7167;DHT22;3625;51.762;14.320;2022-09-09T14:07:35;22.90;99.90
7167;DHT22;3625;51.762;14.320;2022-09-09T14:10:05;23.20;99.90
7167;DHT22;3625;51.762;14.320;2022-09-09T14:12:38;23.60;99.90
7167;DHT22;3625;51.762;14.320;2022-09-09T14:15:09;24.00;99.90
7167;DHT22;3625;51.762;14.320;2022-09-09T14:17:41;24.60;99.90
7167;DHT22;3625;51.762;14.320;2022-09-09T14:20:12;24.70;99.90
7167;DHT22;3625;51.762;14.320;2022-09-09T14:22:52;24.80;99.90
7167;DHT22;3625;51.762;14.320;2022-09-09T14:25:32;24.80;99.90
7167;DHT22;3625;51.762;14.320;2022-09-09T14:28:09;24.70;99.90
7167;DHT22;3625;51.762;14.320;2022-09-09T14:30:48;24.70;99.90
7167;DHT22;3625;51.762;14.320;2022-09-09T14:33:19;24.70;99.90
7167;DHT22;3625;51.762;14.320;2022-09-09T14:35:58;24.60;99.90
7167;DHT22;3625;51.762;14.320;2022-09-09T14:38:47;25.20;99.90
7167;DHT22;3625;51.762;14.320;2022-09-09T14:41:23;25.10;99.90
7167;DHT22;3625;51.762;14.320;2022-09-09T14:43:54;25.30;99.90
7167;DHT22;3625;51.762;14.320;2022-09-09T14:46:42;25.30;99.90
7167;DHT22;3625;51.762;14.320;2022-09-09T14:49:11;24.80;99.90
7167;DHT22;3625;51.762;14.320;2022-09-09T14:54:11;24.30;99.90
7167;DHT22;3625;51.762;14.320;2022-09-09T14:56:44;23.90;99.90
7167;DHT22;3625;51.762;14.320;2022-09-09T14:59:18;23.50;99.90
7167;DHT22;3625;51.762;14.320;2022-09-09T15:01:46;23.50;99.90
7167;DHT22;3625;51.762;14.320;2022-09-09T15:04:22;22.40;99.90
7167;DHT22;3625;51.762;14.320;2022-09-09T15:06:53;23.80;99.90
7167;DHT22;3625;51.762;14.320;2022-09-09T15:09:27;23.50;99.90
7167;DHT22;3625;51.762;14.320;2022-09-09T15:11:58;23.10;99.90
7167;DHT22;3625;51.762;14.320;2022-09-09T15:14:31;22.90;99.90
7167;DHT22;3625;51.762;14.320;2022-09-09T15:17:16;22.90;99.90
7167;DHT22;3625;51.762;14.320;2022-09-09T15:19:45;22.50;99.90
7167;DHT22;3625;51.762;14.320;2022-09-09T15:24:48;22.10;99.90
7167;DHT22;3625;51.762;14.320;2022-09-09T15:27:23;22.00;99.90
7167;DHT22;3625;51.762;14.320;2022-09-09T15:29:53;21.70;99.90
7167;DHT22;3625;51.762;14.320;2022-09-09T15:34:50;21.60;99.90
7167;DHT22;3625;51.762;14.320;2022-09-09T15:37:20;21.50;99.90
7167;DHT22;3625;51.762;14.320;2022-09-09T15:39:48;21.50;99.90
7167;DHT22;3625;51.762;14.320;2022-09-09T15:42:19;21.50;99.90
7167;DHT22;3625;51.762;14.320;2022-09-09T15:44:48;21.40;99.90
7167;DHT22;3625;51.762;14.320;2022-09-09T15:47:18;21.40;99.90
7167;DHT22;3625;51.762;14.320;2022-09-09T15:49:46;21.30;99.90
7167;DHT22;3625;51.762;14.320;2022-09-09T15:52:15;21.30;99.90
7167;DHT22;3625;51.762;14.320;2022-09-09T15:54:46;21.20;99.90
7167;DHT22;3625;51.762;14.320;2022-09-09T15:57:27;21.20;99.90
7167;DHT22;3625;51.762;14.320;2022-09-09T15:59:56;21.20;99.90
7167;DHT22;3625;51.762;14.320;2022-09-09T16:02:28;21.00;99.90
7167;DHT22;3625;51.762;14.320;2022-09-09T16:04:57;21.10;99.90
7167;DHT22;3625;51.762;14.320;2022-09-09T16:07:28;21.10;99.90
7167;DHT22;3625;51.762;14.320;2022-09-09T16:09:56;21.10;99.90
7167;DHT22;3625;51.762;14.320;2022-09-09T16:12:27;21.00;99.90
7167;DHT22;3625;51.762;14.320;2022-09-09T16:14:55;18.90;99.90
7167;DHT22;3625;51.762;14.320;2022-09-09T16:17:24;20.90;99.90
7167;DHT22;3625;51.762;14.320;2022-09-09T16:19:55;20.90;99.90
7167;DHT22;3625;51.762;14.320;2022-09-09T16:22:26;20.80;99.90
7167;DHT22;3625;51.762;14.320;2022-09-09T16:27:23;20.70;99.90
7167;DHT22;3625;51.762;14.320;2022-09-09T16:29:52;20.70;99.90
7167;DHT22;3625;51.762;14.320;2022-09-09T16:32:20;20.40;99.90
7167;DHT22;3625;51.762;14.320;2022-09-09T16:37:20;19.00;99.90
7167;DHT22;3625;51.762;14.320;2022-09-09T16:39:48;20.50;99.90
7167;DHT22;3625;51.762;14.320;2022-09-09T16:44:47;20.50;99.90
7167;DHT22;3625;51.762;14.320;2022-09-09T16:57:21;20.30;99.90
7167;DHT22;3625;51.762;14.320;2022-09-09T17:02:21;19.90;99.90
7167;DHT22;3625;51.762;14.320;2022-09-09T17:04:54;20.10;99.90
7167;DHT22;3625;51.762;14.320;2022-09-09T17:07:25;19.70;99.90
7167;DHT22;3625;51.762;14.320;2022-09-09T17:12:28;19.30;99.90
7167;DHT22;3625;51.762;14.320;2022-09-09T17:17:31;19.40;99.90
7167;DHT22;3625;51.762;14.320;2022-09-09T17:19:59;19.60;99.90
7167;DHT22;3625;51.762;14.320;2022-09-09T17:22:30;19.60;99.90
7167;DHT22;3625;51.762;14.320;2022-09-09T17:27:28;19.40;99.90
7167;DHT22;3625;51.762;14.320;2022-09-09T17:29:59;19.40;99.90
7167;DHT22;3625;51.762;14.320;2022-09-09T17:32:28;19.50;99.90
7167;DHT22;3625;51.762;14.320;2022-09-09T17:37:34;17.70;99.90
7167;DHT22;3625;51.762;14.320;2022-09-09T17:50:00;19.10;99.90
7167;DHT22;3625;51.762;14.320;2022-09-09T17:54:59;18.10;99.90
7167;DHT22;3625;51.762;14.320;2022-09-09T18:00:04;19.10;99.90
7167;DHT22;3625;51.762;14.320;2022-09-09T18:05:07;19.00;99.90
7167;DHT22;3625;51.762;14.320;2022-09-09T18:10:07;18.90;99.90
7167;DHT22;3625;51.762;14.320;2022-09-09T18:15:06;18.80;99.90
7167;DHT22;3625;51.762;14.320;2022-09-09T18:17:35;18.70;99.90
7167;DHT22;3625;51.762;14.320;2022-09-09T18:20:06;18.60;99.90
7167;DHT22;3625;51.762;14.320;2022-09-09T18:22:35;18.70;99.90
7167;DHT22;3625;51.762;14.320;2022-09-09T18:25:04;18.40;99.90
7167;DHT22;3625;51.762;14.320;2022-09-09T18:27:35;18.30;99.90
7167;DHT22;3625;51.762;14.320;2022-09-09T18:30:04;18.20;99.90
7167;DHT22;3625;51.762;14.320;2022-09-09T18:35:03;18.10;99.90
7167;DHT22;3625;51.762;14.320;2022-09-09T18:37:32;17.80;99.90
7167;DHT22;3625;51.762;14.320;2022-09-09T18:45:01;17.60;99.90
7167;DHT22;3625;51.762;14.320;2022-09-09T18:49:59;17.10;99.90
7167;DHT22;3625;51.762;14.320;2022-09-09T18:54:59;16.80;99.90
7167;DHT22;3625;51.762;14.320;2022-09-09T19:00:04;16.40;99.90
7167;DHT22;3625;51.762;14.320;2022-09-09T19:02:35;16.50;99.90
7167;DHT22;3625;51.762;14.320;2022-09-09T19:12:32;15.80;99.90
7167;DHT22;3625;51.762;14.320;2022-09-09T19:15:00;17.00;99.90
7167;DHT22;3625;51.762;14.320;2022-09-09T19:17:30;16.70;99.90
7167;DHT22;3625;51.762;14.320;2022-09-09T19:22:29;15.70;99.90
7167;DHT22;3625;51.762;14.320;2022-09-09T19:29:58;15.70;99.90
7167;DHT22;3625;51.762;14.320;2022-09-09T19:32:26;15.70;99.90
7167;DHT22;3625;51.762;14.320;2022-09-09T19:35:16;15.60;99.90
7167;DHT22;3625;51.762;14.320;2022-09-09T19:40:15;15.70;99.90